Alto Paraiso de Goias, Brazil
Current Conditions -  °F | °C
As of 12:00 PM on Sunday 21 Dec 2014 (Local Time) from SBBR Reporting Station
Broken Clouds Broken Clouds  
Wind Chill: 77°   Ceiling: 2300
Heat Index: 79°   Visibility: 6mi
Dew Point: 64°   Wind: 13mph
Humidity: 65%   Direction: 310°NW
Pressure: 30.12"   Gusts: NA
Location:  14.12°S, 47.52°W
Report Text: SBBR 211400Z 31011KT 9999 BKN023 25/18 Q1020
Loading
Personal Weather Stations






























Interactive Weather Map New forecast layout! Learn more

10-Day Weather Forecast

Advertisements
Track Severe Weather on mobile